sensor_id;sensor_type;location;lat;lon;timestamp;pressure;altitude;pressure_sealevel;temperature;humidity
35655;BME280;21773;50.010;19.972;2023-04-25T00:02:30;97563.41;;;17.03;64.32
35655;BME280;21773;50.010;19.972;2023-04-25T00:05:35;97555.53;;;17.01;64.90
35655;BME280;21773;50.010;19.972;2023-04-25T00:08:41;97566.06;;;17.08;63.54
35655;BME280;21773;50.010;19.972;2023-04-25T00:11:44;97564.09;;;16.95;63.27
35655;BME280;21773;50.010;19.972;2023-04-25T00:14:48;97563.41;;;17.03;62.29
35655;BME280;21773;50.010;19.972;2023-04-25T00:17:53;97574.00;;;17.04;61.74
35655;BME280;21773;50.010;19.972;2023-04-25T00:20:58;97574.44;;;16.93;60.84
35655;BME280;21773;50.010;19.972;2023-04-25T00:24:01;97574.09;;;16.80;60.89
35655;BME280;21773;50.010;19.972;2023-04-25T00:27:04;97569.75;;;16.79;60.88
35655;BME280;21773;50.010;19.972;2023-04-25T00:30:09;97588.56;;;16.76;61.01
35655;BME280;21773;50.010;19.972;2023-04-25T00:33:12;97587.59;;;16.67;60.83
35655;BME280;21773;50.010;19.972;2023-04-25T00:36:17;97569.22;;;16.54;60.97
35655;BME280;21773;50.010;19.972;2023-04-25T00:39:21;97586.59;;;16.58;60.98
35655;BME280;21773;50.010;19.972;2023-04-25T00:42:24;97589.69;;;16.51;60.97
35655;BME280;21773;50.010;19.972;2023-04-25T00:45:29;97590.25;;;16.48;61.62
35655;BME280;21773;50.010;19.972;2023-04-25T00:48:32;97588.13;;;16.45;61.50
35655;BME280;21773;50.010;19.972;2023-04-25T00:51:37;97591.00;;;16.30;61.79
35655;BME280;21773;50.010;19.972;2023-04-25T00:54:40;97600.88;;;16.26;61.86
35655;BME280;21773;50.010;19.972;2023-04-25T00:57:44;97590.78;;;16.26;61.74
35655;BME280;21773;50.010;19.972;2023-04-25T01:00:48;97589.66;;;16.27;62.09
35655;BME280;21773;50.010;19.972;2023-04-25T01:03:53;97593.50;;;16.26;62.32
35655;BME280;21773;50.010;19.972;2023-04-25T01:06:59;97591.25;;;16.33;62.19
35655;BME280;21773;50.010;19.972;2023-04-25T01:10:05;97600.09;;;16.20;62.61
35655;BME280;21773;50.010;19.972;2023-04-25T01:13:09;97597.22;;;16.12;62.79
35655;BME280;21773;50.010;19.972;2023-04-25T01:16:12;97603.47;;;16.12;62.52
35655;BME280;21773;50.010;19.972;2023-04-25T01:19:16;97600.81;;;16.07;62.71
35655;BME280;21773;50.010;19.972;2023-04-25T01:22:22;97605.88;;;16.14;62.70
35655;BME280;21773;50.010;19.972;2023-04-25T01:25:26;97604.25;;;16.13;62.78
35655;BME280;21773;50.010;19.972;2023-04-25T01:28:29;97608.66;;;16.09;63.03
35655;BME280;21773;50.010;19.972;2023-04-25T01:31:34;97607.09;;;16.02;62.77
35655;BME280;21773;50.010;19.972;2023-04-25T01:34:39;97600.00;;;16.07;63.13
35655;BME280;21773;50.010;19.972;2023-04-25T01:37:45;97607.59;;;16.04;63.08
35655;BME280;21773;50.010;19.972;2023-04-25T01:40:49;97587.06;;;15.93;63.52
35655;BME280;21773;50.010;19.972;2023-04-25T01:43:54;97607.78;;;16.13;63.17
35655;BME280;21773;50.010;19.972;2023-04-25T01:46:57;97607.28;;;16.11;63.14
35655;BME280;21773;50.010;19.972;2023-04-25T01:50:03;97606.19;;;16.12;62.75
35655;BME280;21773;50.010;19.972;2023-04-25T01:53:09;97611.38;;;16.09;63.09
35655;BME280;21773;50.010;19.972;2023-04-25T01:56:12;97614.09;;;16.09;62.92
35655;BME280;21773;50.010;19.972;2023-04-25T01:59:16;97616.28;;;16.07;62.96
35655;BME280;21773;50.010;19.972;2023-04-25T02:02:40;97616.81;;;16.09;63.05
35655;BME280;21773;50.010;19.972;2023-04-25T02:05:59;97620.28;;;16.14;62.71
35655;BME280;21773;50.010;19.972;2023-04-25T02:09:06;97622.13;;;16.19;62.73
35655;BME280;21773;50.010;19.972;2023-04-25T02:12:14;97623.00;;;16.14;62.55
35655;BME280;21773;50.010;19.972;2023-04-25T02:15:29;97616.81;;;16.09;62.67
35655;BME280;21773;50.010;19.972;2023-04-25T02:18:44;97621.47;;;16.03;62.77
35655;BME280;21773;50.010;19.972;2023-04-25T02:21:47;97612.28;;;15.99;62.53
35655;BME280;21773;50.010;19.972;2023-04-25T02:24:52;97626.59;;;16.10;62.59
35655;BME280;21773;50.010;19.972;2023-04-25T02:27:56;97620.97;;;16.01;62.89
35655;BME280;21773;50.010;19.972;2023-04-25T02:31:00;97626.13;;;16.02;62.68
35655;BME280;21773;50.010;19.972;2023-04-25T02:34:05;97629.13;;;16.01;62.75
35655;BME280;21773;50.010;19.972;2023-04-25T02:37:10;97629.63;;;16.03;62.82
35655;BME280;21773;50.010;19.972;2023-04-25T02:40:15;97629.69;;;15.98;62.68
35655;BME280;21773;50.010;19.972;2023-04-25T02:43:18;97625.88;;;15.99;62.24
35655;BME280;21773;50.010;19.972;2023-04-25T02:46:22;97634.28;;;16.02;62.04
35655;BME280;21773;50.010;19.972;2023-04-25T02:49:40;97626.88;;;16.08;61.95
35655;BME280;21773;50.010;19.972;2023-04-25T02:52:44;97621.16;;;16.10;61.59
35655;BME280;21773;50.010;19.972;2023-04-25T02:55:52;97623.38;;;16.08;61.48
35655;BME280;21773;50.010;19.972;2023-04-25T02:58:56;97619.78;;;16.12;61.43
35655;BME280;21773;50.010;19.972;2023-04-25T03:01:59;97613.22;;;16.13;61.81
35655;BME280;21773;50.010;19.972;2023-04-25T03:05:03;97613.53;;;16.12;61.76
35655;BME280;21773;50.010;19.972;2023-04-25T03:08:08;97617.38;;;16.06;62.11
35655;BME280;21773;50.010;19.972;2023-04-25T03:11:13;97613.56;;;16.07;62.21
35655;BME280;21773;50.010;19.972;2023-04-25T03:14:17;97605.66;;;16.10;62.44
35655;BME280;21773;50.010;19.972;2023-04-25T03:17:21;97607.06;;;16.08;62.57
35655;BME280;21773;50.010;19.972;2023-04-25T03:20:24;97606.69;;;16.14;62.49
35655;BME280;21773;50.010;19.972;2023-04-25T03:23:27;97610.81;;;16.12;62.79
35655;BME280;21773;50.010;19.972;2023-04-25T03:26:32;97612.94;;;16.15;62.66
35655;BME280;21773;50.010;19.972;2023-04-25T03:29:36;97611.63;;;16.12;62.91
35655;BME280;21773;50.010;19.972;2023-04-25T03:32:39;97612.94;;;16.15;62.65
35655;BME280;21773;50.010;19.972;2023-04-25T03:35:43;97628.38;;;16.19;62.65
35655;BME280;21773;50.010;19.972;2023-04-25T03:38:47;97637.13;;;16.16;62.55
35655;BME280;21773;50.010;19.972;2023-04-25T03:41:53;97627.69;;;16.09;62.70
35655;BME280;21773;50.010;19.972;2023-04-25T03:44:56;97636.66;;;16.09;62.45
35655;BME280;21773;50.010;19.972;2023-04-25T03:48:00;97639.03;;;16.16;62.15
35655;BME280;21773;50.010;19.972;2023-04-25T03:51:04;97639.41;;;16.04;61.78
35655;BME280;21773;50.010;19.972;2023-04-25T03:54:11;97642.19;;;15.99;61.75
35655;BME280;21773;50.010;19.972;2023-04-25T03:57:15;97643.41;;;15.88;61.51
35655;BME280;21773;50.010;19.972;2023-04-25T04:00:19;97653.19;;;15.84;61.82
35655;BME280;21773;50.010;19.972;2023-04-25T04:03:26;97660.09;;;15.71;62.01
35655;BME280;21773;50.010;19.972;2023-04-25T04:06:31;97656.47;;;15.52;62.28
35655;BME280;21773;50.010;19.972;2023-04-25T04:09:42;97661.63;;;15.48;62.15
35655;BME280;21773;50.010;19.972;2023-04-25T04:12:53;97668.00;;;15.29;63.06
35655;BME280;21773;50.010;19.972;2023-04-25T04:15:57;97666.09;;;15.29;63.20
35655;BME280;21773;50.010;19.972;2023-04-25T04:19:00;97669.66;;;15.25;63.09
35655;BME280;21773;50.010;19.972;2023-04-25T04:22:04;97676.75;;;15.15;63.23
35655;BME280;21773;50.010;19.972;2023-04-25T04:25:09;97682.13;;;15.26;62.95
35655;BME280;21773;50.010;19.972;2023-04-25T04:28:44;97685.66;;;15.26;63.27
35655;BME280;21773;50.010;19.972;2023-04-25T04:32:07;97690.50;;;15.34;63.10
35655;BME280;21773;50.010;19.972;2023-04-25T04:35:11;97689.34;;;15.40;62.57
35655;BME280;21773;50.010;19.972;2023-04-25T04:38:15;97691.63;;;15.28;62.18
35655;BME280;21773;50.010;19.972;2023-04-25T04:41:18;97691.06;;;15.26;61.79
35655;BME280;21773;50.010;19.972;2023-04-25T04:44:29;97694.38;;;15.23;62.01
35655;BME280;21773;50.010;19.972;2023-04-25T04:47:44;97689.50;;;15.15;61.86
35655;BME280;21773;50.010;19.972;2023-04-25T04:50:52;97705.75;;;15.20;62.01
35655;BME280;21773;50.010;19.972;2023-04-25T04:54:19;97699.84;;;15.13;62.57
35655;BME280;21773;50.010;19.972;2023-04-25T04:57:42;97697.94;;;15.18;62.35
35655;BME280;21773;50.010;19.972;2023-04-25T05:00:47;97702.72;;;15.32;62.34
35655;BME280;21773;50.010;19.972;2023-04-25T05:04:09;97702.94;;;15.40;61.83
35655;BME280;21773;50.010;19.972;2023-04-25T05:07:32;97703.44;;;15.47;61.97
35655;BME280;21773;50.010;19.972;2023-04-25T05:10:35;97704.53;;;15.51;61.78
35655;BME280;21773;50.010;19.972;2023-04-25T05:14:06;97712.09;;;15.49;61.86
35655;BME280;21773;50.010;19.972;2023-04-25T05:17:22;97707.78;;;15.53;62.11
35655;BME280;21773;50.010;19.972;2023-04-25T05:20:49;97711.59;;;15.52;61.17
35655;BME280;21773;50.010;19.972;2023-04-25T05:24:15;97713.22;;;15.48;60.99
35655;BME280;21773;50.010;19.972;2023-04-25T05:27:37;97717.81;;;15.58;60.41
35655;BME280;21773;50.010;19.972;2023-04-25T05:30:59;97721.06;;;15.50;59.97
35655;BME280;21773;50.010;19.972;2023-04-25T05:34:07;97720.56;;;15.48;59.32
35655;BME280;21773;50.010;19.972;2023-04-25T05:37:26;97729.00;;;15.41;58.44
35655;BME280;21773;50.010;19.972;2023-04-25T05:40:34;97722.56;;;15.32;58.39
35655;BME280;21773;50.010;19.972;2023-04-25T05:43:47;97728.81;;;15.28;58.62
35655;BME280;21773;50.010;19.972;2023-04-25T05:47:06;97739.13;;;15.31;58.32
35655;BME280;21773;50.010;19.972;2023-04-25T05:50:30;97742.97;;;15.25;58.06
35655;BME280;21773;50.010;19.972;2023-04-25T05:53:46;97741.31;;;15.29;57.88
35655;BME280;21773;50.010;19.972;2023-04-25T05:56:49;97744.59;;;15.21;57.65
35655;BME280;21773;50.010;19.972;2023-04-25T05:59:53;97751.16;;;15.14;57.44
35655;BME280;21773;50.010;19.972;2023-04-25T06:03:01;97753.84;;;15.20;56.65
35655;BME280;21773;50.010;19.972;2023-04-25T06:06:06;97753.31;;;15.17;57.31
35655;BME280;21773;50.010;19.972;2023-04-25T06:09:09;97758.44;;;15.24;56.82
35655;BME280;21773;50.010;19.972;2023-04-25T06:12:15;97757.09;;;15.16;56.29
35655;BME280;21773;50.010;19.972;2023-04-25T06:15:20;97767.34;;;15.30;56.43
35655;BME280;21773;50.010;19.972;2023-04-25T06:18:29;97759.75;;;15.32;56.52
35655;BME280;21773;50.010;19.972;2023-04-25T06:21:33;97771.69;;;15.31;56.37
35655;BME280;21773;50.010;19.972;2023-04-25T06:24:37;97766.50;;;15.39;55.05
35655;BME280;21773;50.010;19.972;2023-04-25T06:27:41;97766.72;;;15.48;55.34
35655;BME280;21773;50.010;19.972;2023-04-25T06:30:44;97771.59;;;15.56;55.59
35655;BME280;21773;50.010;19.972;2023-04-25T06:33:51;97770.22;;;15.64;55.40
35655;BME280;21773;50.010;19.972;2023-04-25T06:37:00;97756.09;;;15.62;55.83
35655;BME280;21773;50.010;19.972;2023-04-25T06:40:04;97769.00;;;15.80;56.05
35655;BME280;21773;50.010;19.972;2023-04-25T06:43:09;97769.19;;;15.88;55.20
35655;BME280;21773;50.010;19.972;2023-04-25T06:46:51;97770.00;;;15.89;54.92
35655;BME280;21773;50.010;19.972;2023-04-25T06:49:54;97774.34;;;15.90;55.36
35655;BME280;21773;50.010;19.972;2023-04-25T06:53:00;97780.31;;;15.97;54.59
35655;BME280;21773;50.010;19.972;2023-04-25T06:56:05;97750.47;;;15.87;52.82
35655;BME280;21773;50.010;19.972;2023-04-25T06:59:31;97770.47;;;16.01;53.55
35655;BME280;21773;50.010;19.972;2023-04-25T07:02:37;97772.06;;;16.07;54.45
35655;BME280;21773;50.010;19.972;2023-04-25T07:05:41;97773.97;;;16.07;54.23
35655;BME280;21773;50.010;19.972;2023-04-25T07:08:46;97773.22;;;15.96;53.12
35655;BME280;21773;50.010;19.972;2023-04-25T07:11:50;97771.84;;;15.98;52.40
35655;BME280;21773;50.010;19.972;2023-04-25T07:14:53;97768.31;;;15.98;51.81
35655;BME280;21773;50.010;19.972;2023-04-25T07:17:57;97777.06;;;15.90;51.58
35655;BME280;21773;50.010;19.972;2023-04-25T07:21:01;97777.66;;;15.87;52.32
35655;BME280;21773;50.010;19.972;2023-04-25T07:24:08;97773.66;;;15.74;52.94
35655;BME280;21773;50.010;19.972;2023-04-25T07:27:16;97782.13;;;15.68;53.54
35655;BME280;21773;50.010;19.972;2023-04-25T07:30:45;97780.72;;;15.75;54.05
35655;BME280;21773;50.010;19.972;2023-04-25T07:33:49;97782.56;;;15.80;53.71
35655;BME280;21773;50.010;19.972;2023-04-25T07:36:52;97772.63;;;16.04;54.52
35655;BME280;21773;50.010;19.972;2023-04-25T07:39:59;97773.28;;;16.25;53.11
35655;BME280;21773;50.010;19.972;2023-04-25T07:43:02;97782.25;;;16.54;52.54
35655;BME280;21773;50.010;19.972;2023-04-25T07:46:16;97785.03;;;16.78;49.52
35655;BME280;21773;50.010;19.972;2023-04-25T07:49:20;97785.56;;;16.80;47.01
35655;BME280;21773;50.010;19.972;2023-04-25T07:52:24;97788.13;;;16.95;47.93
35655;BME280;21773;50.010;19.972;2023-04-25T07:55:37;97791.47;;;16.87;46.97
35655;BME280;21773;50.010;19.972;2023-04-25T07:58:48;97782.31;;;16.78;47.94
35655;BME280;21773;50.010;19.972;2023-04-25T08:01:53;97782.59;;;16.76;48.59
35655;BME280;21773;50.010;19.972;2023-04-25T08:04:56;97789.66;;;16.77;48.67
35655;BME280;21773;50.010;19.972;2023-04-25T08:08:00;97779.91;;;16.71;47.81
35655;BME280;21773;50.010;19.972;2023-04-25T08:11:06;97771.03;;;16.66;48.53
35655;BME280;21773;50.010;19.972;2023-04-25T08:14:09;97785.09;;;16.73;48.35
35655;BME280;21773;50.010;19.972;2023-04-25T08:17:14;97782.53;;;16.81;48.30
35655;BME280;21773;50.010;19.972;2023-04-25T08:20:19;97783.47;;;16.72;48.49
35655;BME280;21773;50.010;19.972;2023-04-25T08:23:24;97781.97;;;16.61;49.04
35655;BME280;21773;50.010;19.972;2023-04-25T08:26:38;97772.06;;;16.41;48.45
35655;BME280;21773;50.010;19.972;2023-04-25T08:29:46;97778.91;;;16.33;49.47
35655;BME280;21773;50.010;19.972;2023-04-25T08:32:50;97762.75;;;16.13;48.91
35655;BME280;21773;50.010;19.972;2023-04-25T08:36:03;97786.06;;;16.24;49.38
35655;BME280;21773;50.010;19.972;2023-04-25T08:39:06;97787.44;;;16.22;49.80
35655;BME280;21773;50.010;19.972;2023-04-25T08:42:21;97790.75;;;16.14;49.75
35655;BME280;21773;50.010;19.972;2023-04-25T08:45:27;97783.44;;;16.09;50.81
35655;BME280;21773;50.010;19.972;2023-04-25T08:48:32;97778.38;;;16.02;50.50
35655;BME280;21773;50.010;19.972;2023-04-25T08:51:44;97784.34;;;15.99;50.99
35655;BME280;21773;50.010;19.972;2023-04-25T08:54:51;97787.06;;;15.99;51.31
35655;BME280;21773;50.010;19.972;2023-04-25T08:57:59;97796.34;;;15.93;51.47
35655;BME280;21773;50.010;19.972;2023-04-25T09:01:03;97776.63;;;15.78;51.12
35655;BME280;21773;50.010;19.972;2023-04-25T09:04:15;97776.13;;;15.71;50.69
35655;BME280;21773;50.010;19.972;2023-04-25T09:07:18;97800.72;;;15.89;50.54
35655;BME280;21773;50.010;19.972;2023-04-25T09:10:24;97804.53;;;15.88;51.45
35655;BME280;21773;50.010;19.972;2023-04-25T09:13:31;97799.03;;;15.98;51.45
35655;BME280;21773;50.010;19.972;2023-04-25T09:16:59;97801.38;;;16.15;51.62
35655;BME280;21773;50.010;19.972;2023-04-25T09:20:13;97803.69;;;16.32;50.96
35655;BME280;21773;50.010;19.972;2023-04-25T09:23:19;97786.78;;;16.35;50.42
35655;BME280;21773;50.010;19.972;2023-04-25T09:26:22;97806.59;;;16.40;49.52
35655;BME280;21773;50.010;19.972;2023-04-25T09:29:31;97808.72;;;16.43;49.53
35655;BME280;21773;50.010;19.972;2023-04-25T09:32:35;97809.59;;;16.39;49.40
35655;BME280;21773;50.010;19.972;2023-04-25T09:35:40;97805.28;;;16.33;49.51
35655;BME280;21773;50.010;19.972;2023-04-25T09:38:49;97809.63;;;16.34;50.11
35655;BME280;21773;50.010;19.972;2023-04-25T09:41:59;97783.97;;;16.16;49.59
35655;BME280;21773;50.010;19.972;2023-04-25T09:45:05;97805.88;;;16.30;48.42
35655;BME280;21773;50.010;19.972;2023-04-25T09:48:17;97792.59;;;16.23;48.70
35655;BME280;21773;50.010;19.972;2023-04-25T09:51:26;97803.38;;;16.33;49.22
35655;BME280;21773;50.010;19.972;2023-04-25T09:54:32;97800.69;;;16.28;49.53
35655;BME280;21773;50.010;19.972;2023-04-25T09:57:42;97795.22;;;16.33;49.26
35655;BME280;21773;50.010;19.972;2023-04-25T10:00:51;97793.50;;;16.42;48.64
35655;BME280;21773;50.010;19.972;2023-04-25T10:04:10;97794.81;;;16.50;47.95
35655;BME280;21773;50.010;19.972;2023-04-25T10:07:23;97802.72;;;16.80;48.25
35655;BME280;21773;50.010;19.972;2023-04-25T10:10:28;97808.50;;;16.98;47.93
35655;BME280;21773;50.010;19.972;2023-04-25T10:13:35;97798.09;;;17.05;47.23
35655;BME280;21773;50.010;19.972;2023-04-25T10:16:41;97806.38;;;17.18;46.23
35655;BME280;21773;50.010;19.972;2023-04-25T10:19:46;97802.78;;;17.23;46.65
35655;BME280;21773;50.010;19.972;2023-04-25T10:22:54;97804.47;;;17.19;46.43
35655;BME280;21773;50.010;19.972;2023-04-25T10:25:59;97804.22;;;17.15;45.41
35655;BME280;21773;50.010;19.972;2023-04-25T10:29:03;97800.75;;;17.33;45.67
35655;BME280;21773;50.010;19.972;2023-04-25T10:32:08;97799.75;;;17.48;43.75
35655;BME280;21773;50.010;19.972;2023-04-25T10:35:13;97792.03;;;17.74;43.96
35655;BME280;21773;50.010;19.972;2023-04-25T10:38:18;97793.00;;;18.02;42.85
35655;BME280;21773;50.010;19.972;2023-04-25T10:41:22;97784.41;;;18.27;42.80
35655;BME280;21773;50.010;19.972;2023-04-25T10:44:26;97789.03;;;18.45;40.96
35655;BME280;21773;50.010;19.972;2023-04-25T10:47:36;97791.34;;;18.71;41.25
35655;BME280;21773;50.010;19.972;2023-04-25T10:50:39;97789.09;;;18.86;39.74
35655;BME280;21773;50.010;19.972;2023-04-25T10:53:44;97779.69;;;18.65;39.39
35655;BME280;21773;50.010;19.972;2023-04-25T10:56:48;97781.22;;;18.71;39.48
35655;BME280;21773;50.010;19.972;2023-04-25T10:59:53;97787.69;;;18.75;39.37
35655;BME280;21773;50.010;19.972;2023-04-25T11:02:59;97779.50;;;18.75;38.68
35655;BME280;21773;50.010;19.972;2023-04-25T11:06:05;97777.41;;;18.86;39.01
35655;BME280;21773;50.010;19.972;2023-04-25T11:09:11;97777.41;;;18.99;39.32
35655;BME280;21773;50.010;19.972;2023-04-25T11:12:15;97773.16;;;19.07;39.63
35655;BME280;21773;50.010;19.972;2023-04-25T11:15:19;97774.28;;;19.20;38.56
35655;BME280;21773;50.010;19.972;2023-04-25T11:18:27;97781.03;;;19.22;39.70
35655;BME280;21773;50.010;19.972;2023-04-25T11:21:30;97779.13;;;19.23;39.52
35655;BME280;21773;50.010;19.972;2023-04-25T11:24:36;97773.66;;;19.23;38.71
35655;BME280;21773;50.010;19.972;2023-04-25T11:27:49;97775.16;;;19.01;37.90
35655;BME280;21773;50.010;19.972;2023-04-25T11:30:53;97769.69;;;19.01;38.50
35655;BME280;21773;50.010;19.972;2023-04-25T11:33:58;97774.16;;;18.84;38.08
35655;BME280;21773;50.010;19.972;2023-04-25T11:37:02;97778.69;;;18.61;38.55
35655;BME280;21773;50.010;19.972;2023-04-25T11:40:06;97775.53;;;18.35;40.33
35655;BME280;21773;50.010;19.972;2023-04-25T11:43:11;97757.22;;;18.03;40.55
35655;BME280;21773;50.010;19.972;2023-04-25T11:46:15;97782.66;;;17.99;41.24
35655;BME280;21773;50.010;19.972;2023-04-25T11:49:20;97783.63;;;17.89;42.56
35655;BME280;21773;50.010;19.972;2023-04-25T11:52:24;97778.03;;;17.81;42.90
35655;BME280;21773;50.010;19.972;2023-04-25T11:55:30;97779.34;;;17.64;41.88
35655;BME280;21773;50.010;19.972;2023-04-25T11:58:53;97778.09;;;17.57;41.73
35655;BME280;21773;50.010;19.972;2023-04-25T12:01:57;97784.41;;;17.52;42.64
35655;BME280;21773;50.010;19.972;2023-04-25T12:05:06;97777.13;;;17.48;42.15
35655;BME280;21773;50.010;19.972;2023-04-25T12:08:30;97775.78;;;17.45;42.54
35655;BME280;21773;50.010;19.972;2023-04-25T12:11:40;97775.22;;;17.48;43.50
35655;BME280;21773;50.010;19.972;2023-04-25T12:14:46;97773.88;;;17.46;43.28
35655;BME280;21773;50.010;19.972;2023-04-25T12:17:52;97771.88;;;17.51;43.35
35655;BME280;21773;50.010;19.972;2023-04-25T12:20:58;97775.44;;;17.52;43.07
35655;BME280;21773;50.010;19.972;2023-04-25T12:24:10;97773.38;;;17.44;42.36
35655;BME280;21773;50.010;19.972;2023-04-25T12:27:15;97763.63;;;17.38;42.74
35655;BME280;21773;50.010;19.972;2023-04-25T12:30:21;97778.56;;;17.40;43.44
35655;BME280;21773;50.010;19.972;2023-04-25T12:34:08;97781.00;;;17.42;43.72
35655;BME280;21773;50.010;19.972;2023-04-25T12:37:11;97788.06;;;17.24;42.77
35655;BME280;21773;50.010;19.972;2023-04-25T12:40:15;97783.78;;;17.18;42.76
35655;BME280;21773;50.010;19.972;2023-04-25T12:43:19;97784.88;;;17.17;42.14
35655;BME280;21773;50.010;19.972;2023-04-25T12:46:23;97782.13;;;17.17;43.42
35655;BME280;21773;50.010;19.972;2023-04-25T12:49:27;97784.06;;;17.16;43.56
35655;BME280;21773;50.010;19.972;2023-04-25T12:52:31;97783.25;;;17.16;42.03
35655;BME280;21773;50.010;19.972;2023-04-25T12:55:34;97785.69;;;17.17;41.96
35655;BME280;21773;50.010;19.972;2023-04-25T12:58:38;97782.41;;;17.15;43.26
35655;BME280;21773;50.010;19.972;2023-04-25T13:01:42;97791.19;;;17.12;43.63
35655;BME280;21773;50.010;19.972;2023-04-25T13:04:47;97785.72;;;17.12;43.92
35655;BME280;21773;50.010;19.972;2023-04-25T13:07:50;97791.19;;;17.12;44.05
35655;BME280;21773;50.010;19.972;2023-04-25T13:10:54;97787.97;;;17.10;44.17
35655;BME280;21773;50.010;19.972;2023-04-25T13:13:57;97792.06;;;17.08;43.95
35655;BME280;21773;50.010;19.972;2023-04-25T13:17:00;97790.59;;;17.15;45.91
35655;BME280;21773;50.010;19.972;2023-04-25T13:20:06;97786.28;;;17.14;44.83
35655;BME280;21773;50.010;19.972;2023-04-25T13:23:11;97785.91;;;17.21;44.23
35655;BME280;21773;50.010;19.972;2023-04-25T13:26:16;97777.44;;;17.22;44.50
35655;BME280;21773;50.010;19.972;2023-04-25T13:29:19;97781.19;;;17.26;44.76
35655;BME280;21773;50.010;19.972;2023-04-25T13:32:23;97782.78;;;17.32;43.94
35655;BME280;21773;50.010;19.972;2023-04-25T13:35:28;97773.91;;;17.22;44.10
35655;BME280;21773;50.010;19.972;2023-04-25T13:38:32;97786.97;;;17.25;44.39
35655;BME280;21773;50.010;19.972;2023-04-25T13:41:35;97788.28;;;17.27;44.93
35655;BME280;21773;50.010;19.972;2023-04-25T13:44:39;97784.97;;;17.30;44.89
35655;BME280;21773;50.010;19.972;2023-04-25T13:47:42;97786.25;;;17.38;43.50
35655;BME280;21773;50.010;19.972;2023-04-25T13:50:47;97777.34;;;17.51;43.56
35655;BME280;21773;50.010;19.972;2023-04-25T13:53:50;97780.50;;;17.63;43.17
35655;BME280;21773;50.010;19.972;2023-04-25T13:56:54;97783.06;;;17.73;42.97
35655;BME280;21773;50.010;19.972;2023-04-25T14:00:00;97778.84;;;17.81;43.75
35655;BME280;21773;50.010;19.972;2023-04-25T14:03:07;97787.91;;;17.95;42.50
35655;BME280;21773;50.010;19.972;2023-04-25T14:06:12;97782.47;;;17.95;42.18
35655;BME280;21773;50.010;19.972;2023-04-25T14:09:15;97793.38;;;17.95;41.50
35655;BME280;21773;50.010;19.972;2023-04-25T14:12:18;97776.88;;;17.87;41.41
35655;BME280;21773;50.010;19.972;2023-04-25T14:15:22;97789.69;;;17.86;41.79
35655;BME280;21773;50.010;19.972;2023-04-25T14:18:25;97794.34;;;17.86;42.14
35655;BME280;21773;50.010;19.972;2023-04-25T14:21:30;97787.63;;;17.78;42.15
35655;BME280;21773;50.010;19.972;2023-04-25T14:24:34;97798.50;;;17.59;42.32
35655;BME280;21773;50.010;19.972;2023-04-25T14:27:38;97795.09;;;17.49;43.36
35655;BME280;21773;50.010;19.972;2023-04-25T14:30:41;97803.22;;;17.30;44.31
35655;BME280;21773;50.010;19.972;2023-04-25T14:33:44;97807.53;;;17.12;44.47
35655;BME280;21773;50.010;19.972;2023-04-25T14:36:49;97800.97;;;16.89;45.67
35655;BME280;21773;50.010;19.972;2023-04-25T14:39:52;97799.28;;;16.70;45.86
35655;BME280;21773;50.010;19.972;2023-04-25T14:42:56;97788.78;;;16.53;46.45
35655;BME280;21773;50.010;19.972;2023-04-25T14:45:59;97808.03;;;16.62;46.71
35655;BME280;21773;50.010;19.972;2023-04-25T14:49:03;97799.78;;;16.72;46.38
35655;BME280;21773;50.010;19.972;2023-04-25T14:52:09;97800.28;;;16.79;43.11
35655;BME280;21773;50.010;19.972;2023-04-25T14:55:12;97801.03;;;16.84;40.26
35655;BME280;21773;50.010;19.972;2023-04-25T14:58:16;97792.38;;;16.77;37.89
35655;BME280;21773;50.010;19.972;2023-04-25T15:01:19;97795.59;;;16.84;39.59
35655;BME280;21773;50.010;19.972;2023-04-25T15:04:23;97794.19;;;16.87;37.35
35655;BME280;21773;50.010;19.972;2023-04-25T15:07:29;97792.34;;;16.82;36.07
35655;BME280;21773;50.010;19.972;2023-04-25T15:10:32;97801.59;;;16.81;36.40
35655;BME280;21773;50.010;19.972;2023-04-25T15:13:36;97796.69;;;16.83;37.53
35655;BME280;21773;50.010;19.972;2023-04-25T15:16:39;97805.34;;;16.91;36.87
35655;BME280;21773;50.010;19.972;2023-04-25T15:19:42;97801.38;;;17.02;37.42
35655;BME280;21773;50.010;19.972;2023-04-25T15:22:47;97809.16;;;17.13;37.76
35655;BME280;21773;50.010;19.972;2023-04-25T15:25:50;97806.59;;;17.22;38.21
35655;BME280;21773;50.010;19.972;2023-04-25T15:28:55;97807.88;;;17.29;37.93
35655;BME280;21773;50.010;19.972;2023-04-25T15:31:58;97809.34;;;17.41;37.78
35655;BME280;21773;50.010;19.972;2023-04-25T15:35:03;97804.09;;;17.49;37.33
35655;BME280;21773;50.010;19.972;2023-04-25T15:38:09;97805.63;;;17.55;37.19
35655;BME280;21773;50.010;19.972;2023-04-25T15:41:13;97795.78;;;17.59;36.37
35655;BME280;21773;50.010;19.972;2023-04-25T15:44:16;97803.97;;;17.59;35.80
35655;BME280;21773;50.010;19.972;2023-04-25T15:47:19;97803.53;;;17.71;36.63
35655;BME280;21773;50.010;19.972;2023-04-25T15:50:23;97801.28;;;17.78;37.02
35655;BME280;21773;50.010;19.972;2023-04-25T15:53:28;97802.66;;;17.75;36.21
35655;BME280;21773;50.010;19.972;2023-04-25T15:56:32;97789.56;;;17.78;35.96
35655;BME280;21773;50.010;19.972;2023-04-25T15:59:35;97790.78;;;17.85;36.71
35655;BME280;21773;50.010;19.972;2023-04-25T16:02:40;97800.31;;;17.88;36.78
35655;BME280;21773;50.010;19.972;2023-04-25T16:05:44;97796.25;;;17.85;36.09
35655;BME280;21773;50.010;19.972;2023-04-25T16:08:49;97797.06;;;17.86;36.41
35655;BME280;21773;50.010;19.972;2023-04-25T16:11:54;97802.88;;;17.79;36.39
35655;BME280;21773;50.010;19.972;2023-04-25T16:14:57;97793.66;;;17.75;36.32
35655;BME280;21773;50.010;19.972;2023-04-25T16:18:01;97799.50;;;17.68;36.53